Time,TemperatureF,DewpointF,PressureIn,WindDirection,WindDirectionDegrees,WindSpeedMPH,WindSpeedGustMPH,Humidity,HourlyPrecipIn,Conditions,Clouds,dailyrainin,SoftwareType,DateUTC
2013-09-14 00:00:00,63.1,54.7,29.94,NNE,17,0.0,3.0,74,0.00,CLR,,0.00,WeatherDisplay:10.37,2013-09-14 04:00:00,
2013-09-14 00:10:00,62.7,54.7,29.94,NNE,24,0.0,2.0,75,0.00,CLR,,0.00,WeatherDisplay:10.37,2013-09-14 04:10:00,
2013-09-14 00:20:00,62.5,54.5,29.94,NE,35,2.0,5.0,75,0.00,CLR,,0.00,WeatherDisplay:10.37,2013-09-14 04:20:00,
2013-09-14 00:30:00,62.2,54.5,29.95,NE,50,0.0,3.0,76,0.00,CLR,,0.00,WeatherDisplay:10.37,2013-09-14 04:30:00,
2013-09-14 00:40:00,61.9,54.3,29.94,NE,48,0.0,3.0,76,0.00,CLR,,0.00,WeatherDisplay:10.37,2013-09-14 04:40:00,
2013-09-14 00:50:00,61.6,54.0,29.94,NE,45,0.0,3.0,76,0.00,CLR,,0.00,WeatherDisplay:10.37,2013-09-14 04:50:00,
2013-09-14 01:00:00,61.3,54.4,29.95,NE,49,0.0,3.0,78,0.00,CLR,,0.00,WeatherDisplay:10.37,2013-09-14 05:00:00,
2013-09-14 01:10:00,61.0,54.1,29.95,NNE,31,0.0,3.0,78,0.00,CLR,,0.00,WeatherDisplay:10.37,2013-09-14 05:10:00,
2013-09-14 01:20:00,60.9,53.6,29.94,NNE,31,0.0,3.0,77,0.00,CLR,,0.00,WeatherDisplay:10.37,2013-09-14 05:20:00,
2013-09-14 01:30:00,61.0,54.1,29.94,NE,41,1.0,4.0,78,0.00,CLR,,0.00,WeatherDisplay:10.37,2013-09-14 05:30:00,
2013-09-14 01:40:00,60.6,53.7,29.94,ENE,57,0.0,4.0,78,0.00,CLR,,0.00,WeatherDisplay:10.37,2013-09-14 05:40:00,
2013-09-14 01:50:00,60.4,53.5,29.94,NE,43,0.0,3.0,78,0.00,CLR,,0.00,WeatherDisplay:10.37,2013-09-14 05:50:00,
2013-09-14 02:00:00,60.3,53.4,29.94,NNE,17,1.0,5.0,78,0.00,CLR,,0.00,WeatherDisplay:10.37,2013-09-14 06:00:00,
2013-09-14 02:10:00,60.0,53.5,29.95,NE,51,0.0,4.0,79,0.00,CLR,,0.00,WeatherDisplay:10.37,2013-09-14 06:10:00,
2013-09-14 02:20:00,59.5,53.3,29.95,NE,48,0.0,1.0,80,0.00,CLR,,0.00,WeatherDisplay:10.37,2013-09-14 06:20:00,
2013-09-14 02:30:00,59.2,53.3,29.95,NE,48,0.0,1.0,81,0.00,CLR,,0.00,WeatherDisplay:10.37,2013-09-14 06:30:00,
2013-09-14 02:40:00,58.8,53.3,29.95,NE,47,0.0,3.0,82,0.00,CLR,,0.00,WeatherDisplay:10.37,2013-09-14 06:40:00,
2013-09-14 02:50:00,58.2,53.1,29.94,NE,47,0.0,1.0,83,0.00,CLR,,0.00,WeatherDisplay:10.37,2013-09-14 06:50:00,
2013-09-14 03:00:00,58.1,53.0,29.95,NE,56,1.0,5.0,83,0.00,CLR,,0.00,WeatherDisplay:10.37,2013-09-14 07:00:00,
2013-09-14 03:10:00,57.7,52.6,29.94,NE,56,1.0,2.0,83,0.00,CLR,,0.00,WeatherDisplay:10.37,2013-09-14 07:10:00,
2013-09-14 03:20:00,57.7,52.6,29.94,ENE,65,0.0,4.0,83,0.00,CLR,,0.00,WeatherDisplay:10.37,2013-09-14 07:20:00,
2013-09-14 03:30:00,57.6,52.4,29.94,NE,45,1.0,4.0,83,0.00,CLR,,0.00,WeatherDisplay:10.37,2013-09-14 07:30:00,
2013-09-14 03:40:00,57.9,52.4,29.94,NE,39,1.0,4.0,82,0.00,CLR,,0.00,WeatherDisplay:10.37,2013-09-14 07:40:00,
2013-09-14 03:50:00,57.8,52.0,29.93,NNE,26,2.0,5.0,81,0.00,CLR,,0.00,WeatherDisplay:10.37,2013-09-14 07:50:00,
2013-09-14 04:00:00,57.8,52.0,29.94,ENE,60,0.0,7.0,81,0.00,CLR,,0.00,WeatherDisplay:10.37,2013-09-14 08:00:00,
2013-09-14 04:10:00,57.7,51.9,29.93,NNE,33,0.0,5.0,81,0.00,CLR,,0.00,WeatherDisplay:10.37,2013-09-14 08:10:00,
2013-09-14 04:20:00,57.6,51.8,29.93,NE,34,0.0,3.0,81,0.00,CLR,,0.00,WeatherDisplay:10.37,2013-09-14 08:20:00,
2013-09-14 04:40:00,57.2,51.8,29.93,NE,35,1.0,5.0,82,0.00,CLR,,0.00,WeatherDisplay:10.37,2013-09-14 08:40:00,
2013-09-14 04:50:00,56.9,51.5,29.94,NE,38,0.0,6.0,82,0.00,CLR,,0.00,WeatherDisplay:10.37,2013-09-14 08:50:00,
2013-09-14 05:00:00,56.6,51.5,29.94,NNE,27,0.0,4.0,83,0.00,CLR,,0.00,WeatherDisplay:10.37,2013-09-14 09:00:00,
2013-09-14 05:10:00,56.2,51.4,29.94,ENE,57,1.0,3.0,84,0.00,CLR,,0.00,WeatherDisplay:10.37,2013-09-14 09:10:00,
2013-09-14 05:20:00,56.0,51.5,29.94,ENE,70,0.0,5.0,85,0.00,CLR,,0.00,WeatherDisplay:10.37,2013-09-14 09:20:00,
2013-09-14 05:30:00,55.7,51.6,29.94,NE,56,1.0,4.0,86,0.00,CLR,,0.00,WeatherDisplay:10.37,2013-09-14 09:30:00,
2013-09-14 05:40:00,55.5,51.4,29.94,NE,48,0.0,2.0,86,0.00,CLR,,0.00,WeatherDisplay:10.37,2013-09-14 09:40:00,
2013-09-14 05:50:00,55.3,51.2,29.95,NE,42,0.0,4.0,86,0.00,CLR,,0.00,WeatherDisplay:10.37,2013-09-14 09:50:00,
2013-09-14 06:00:00,55.1,51.3,29.95,NE,44,1.0,6.0,87,0.00,CLR,,0.00,WeatherDisplay:10.37,2013-09-14 10:00:00,
2013-09-14 06:10:00,54.9,51.1,29.95,NE,34,0.0,4.0,87,0.00,CLR,,0.00,WeatherDisplay:10.37,2013-09-14 10:10:00,
2013-09-14 06:20:00,54.6,51.1,29.95,NE,52,0.0,3.0,88,0.00,CLR,,0.00,WeatherDisplay:10.37,2013-09-14 10:20:00,
2013-09-14 06:30:00,54.2,50.7,29.96,ENE,69,0.0,3.0,88,0.00,CLR,,0.00,WeatherDisplay:10.37,2013-09-14 10:30:00,
2013-09-14 06:40:00,53.9,50.7,29.96,ENE,77,0.0,3.0,89,0.00,CLR,,0.00,WeatherDisplay:10.37,2013-09-14 10:40:00,
2013-09-14 06:50:00,53.7,50.8,29.96,ENE,71,0.0,3.0,90,0.00,CLR,,0.00,WeatherDisplay:10.37,2013-09-14 10:50:00,
2013-09-14 07:00:00,53.7,50.5,29.97,NE,36,0.0,6.0,89,0.00,CLR,,0.00,WeatherDisplay:10.37,2013-09-14 11:00:00,
2013-09-14 07:10:00,53.7,50.8,29.97,NE,35,0.0,3.0,90,0.00,CLR,,0.00,WeatherDisplay:10.37,2013-09-14 11:10:00,
2013-09-14 07:20:00,53.6,50.7,29.98,NE,37,0.0,1.0,90,0.00,CLR,,0.00,WeatherDisplay:10.37,2013-09-14 11:20:00,
2013-09-14 07:30:00,53.4,50.5,29.98,NE,38,0.0,3.0,90,0.00,CLR,,0.00,WeatherDisplay:10.37,2013-09-14 11:30:00,
2013-09-14 07:40:00,53.4,50.5,29.99,NE,38,0.0,1.0,90,0.00,CLR,,0.00,WeatherDisplay:10.37,2013-09-14 11:40:00,
2013-09-14 07:50:00,53.4,50.8,29.99,NE,38,0.0,3.0,91,0.00,CLR,,0.00,WeatherDisplay:10.37,2013-09-14 11:50:00,
2013-09-14 08:00:00,53.5,51.0,29.99,NE,42,1.0,3.0,91,0.00,CLR,,0.00,WeatherDisplay:10.37,2013-09-14 12:00:00,
2013-09-14 08:10:00,53.9,51.3,29.99,NE,42,0.0,3.0,91,0.00,CLR,,0.00,WeatherDisplay:10.37,2013-09-14 12:10:00,
2013-09-14 08:20:00,54.7,51.8,30.00,NE,35,1.0,3.0,90,0.00,CLR,,0.00,WeatherDisplay:10.37,2013-09-14 12:20:00,
2013-09-14 08:30:00,55.7,52.2,30.00,NE,43,1.0,5.0,88,0.00,CLR,,0.00,WeatherDisplay:10.37,2013-09-14 12:30:00,
2013-09-14 08:40:00,57.0,53.2,30.00,NNE,28,0.0,3.0,87,0.00,CLR,,0.00,WeatherDisplay:10.37,2013-09-14 12:40:00,
2013-09-14 08:50:00,58.1,53.3,30.01,ENE,59,1.0,4.0,84,0.00,CLR,,0.00,WeatherDisplay:10.37,2013-09-14 12:50:00,
2013-09-14 09:00:00,58.8,54.0,30.01,NE,54,0.0,4.0,84,0.00,CLR,,0.00,WeatherDisplay:10.37,2013-09-14 13:00:00,
2013-09-14 09:10:00,59.8,54.3,30.01,NE,50,1.0,3.0,82,0.00,CLR,,0.00,WeatherDisplay:10.37,2013-09-14 13:10:00,
2013-09-14 09:20:00,60.2,54.0,30.02,NE,54,2.0,5.0,80,0.00,CLR,,0.00,WeatherDisplay:10.37,2013-09-14 13:20:00,
2013-09-14 09:30:00,60.8,55.0,30.02,NE,45,0.0,3.0,81,0.00,CLR,,0.00,WeatherDisplay:10.37,2013-09-14 13:30:00,
2013-09-14 09:40:00,61.7,55.5,30.02,NNE,12,0.0,3.0,80,0.00,CLR,,0.00,WeatherDisplay:10.37,2013-09-14 13:40:00,
2013-09-14 09:50:00,62.4,55.1,30.03,NE,35,0.0,4.0,77,0.00,CLR,,0.00,WeatherDisplay:10.37,2013-09-14 13:50:00,
2013-09-14 10:00:00,63.0,55.3,30.03,ENE,67,1.0,6.0,76,0.00,CLR,,0.00,WeatherDisplay:10.37,2013-09-14 14:00:00,
2013-09-14 10:10:00,63.5,55.8,30.03,ENE,78,1.0,5.0,76,0.00,CLR,,0.00,WeatherDisplay:10.37,2013-09-14 14:10:00,
2013-09-14 10:20:00,64.0,56.6,30.03,NE,39,1.0,5.0,77,0.00,CLR,,0.00,WeatherDisplay:10.37,2013-09-14 14:20:00,
2013-09-14 10:30:00,64.5,56.1,30.03,NE,47,1.0,3.0,74,0.00,CLR,,0.00,WeatherDisplay:10.37,2013-09-14 14:30:00,
2013-09-14 10:40:00,65.3,57.2,30.03,NE,43,0.0,4.0,75,0.00,CLR,,0.00,WeatherDisplay:10.37,2013-09-14 14:40:00,
2013-09-14 10:50:00,66.5,58.7,30.03,NE,43,1.0,2.0,76,0.00,CLR,,0.00,WeatherDisplay:10.37,2013-09-14 14:50:00,
2013-09-14 11:00:00,67.2,57.1,30.03,NE,43,1.0,3.0,70,0.00,CLR,,0.00,WeatherDisplay:10.37,2013-09-14 15:00:00,
2013-09-14 11:10:00,67.6,57.5,30.04,NE,50,1.0,4.0,70,0.00,CLR,,0.00,WeatherDisplay:10.37,2013-09-14 15:10:00,
2013-09-14 11:20:00,68.4,57.8,30.04,ENE,66,1.0,3.0,69,0.00,CLR,,0.00,WeatherDisplay:10.37,2013-09-14 15:20:00,
2013-09-14 11:30:00,69.4,58.8,30.03,NE,36,0.0,3.0,69,0.00,CLR,,0.00,WeatherDisplay:10.37,2013-09-14 15:30:00,
2013-09-14 11:40:00,70.2,57.9,30.03,ENE,57,2.0,4.0,65,0.00,CLR,,0.00,WeatherDisplay:10.37,2013-09-14 15:40:00,
2013-09-14 11:50:00,70.6,58.7,30.03,NE,35,1.0,5.0,66,0.00,CLR,,0.00,WeatherDisplay:10.37,2013-09-14 15:50:00,
2013-09-14 12:00:00,71.4,59.0,30.03,SE,144,1.0,5.0,65,0.00,CLR,,0.00,WeatherDisplay:10.37,2013-09-14 16:00:00,
2013-09-14 12:10:00,71.6,58.3,30.03,East,85,1.0,4.0,63,0.00,CLR,,0.00,WeatherDisplay:10.37,2013-09-14 16:10:00,
2013-09-14 12:20:00,72.1,58.8,30.03,NE,53,0.0,4.0,63,0.00,CLR,,0.00,WeatherDisplay:10.37,2013-09-14 16:20:00,
2013-09-14 12:30:00,72.7,58.0,30.03,NE,43,1.0,6.0,60,0.00,CLR,,0.00,WeatherDisplay:10.37,2013-09-14 16:30:00,
2013-09-14 12:40:00,72.8,58.1,30.03,NE,42,1.0,4.0,60,0.00,CLR,,0.00,WeatherDisplay:10.37,2013-09-14 16:40:00,
2013-09-14 12:50:00,73.1,58.8,30.03,NE,42,1.0,3.0,61,0.00,CLR,,0.00,WeatherDisplay:10.37,2013-09-14 16:50:00,
2013-09-14 13:00:00,73.5,57.8,30.03,NE,45,1.0,5.0,58,0.00,CLR,,0.00,WeatherDisplay:10.37,2013-09-14 17:00:00,
2013-09-14 13:10:00,74.0,60.1,30.02,NE,44,0.0,4.0,62,0.00,CLR,,0.00,WeatherDisplay:10.37,2013-09-14 17:10:00,
2013-09-14 13:20:00,74.5,58.7,30.02,NE,49,1.0,3.0,58,0.00,CLR,,0.00,WeatherDisplay:10.37,2013-09-14 17:20:00,
2013-09-14 13:30:00,74.5,58.2,30.02,SE,134,0.0,7.0,57,0.00,CLR,,0.00,WeatherDisplay:10.37,2013-09-14 17:30:00,
2013-09-14 13:40:00,75.3,58.1,30.02,SE,132,2.0,7.0,55,0.00,CLR,,0.00,WeatherDisplay:10.37,2013-09-14 17:40:00,
2013-09-14 13:50:00,75.3,60.0,30.01,SE,135,1.0,5.0,59,0.00,CLR,,0.00,WeatherDisplay:10.37,2013-09-14 17:50:00,
2013-09-14 14:00:00,75.4,58.6,30.02,ESE,104,2.0,6.0,56,0.00,CLR,,0.00,WeatherDisplay:10.37,2013-09-14 18:00:00,
2013-09-14 14:10:00,75.9,59.0,30.01,NNE,26,0.0,5.0,56,0.00,CLR,,0.00,WeatherDisplay:10.37,2013-09-14 18:10:00,
2013-09-14 14:20:00,76.2,59.4,30.01,NNE,31,0.0,5.0,56,0.00,CLR,,0.00,WeatherDisplay:10.37,2013-09-14 18:20:00,
2013-09-14 14:30:00,76.5,58.1,30.01,South,179,1.0,6.0,53,0.00,CLR,,0.00,WeatherDisplay:10.37,2013-09-14 18:30:00,
2013-09-14 14:40:00,76.6,59.3,30.00,WSW,243,1.0,6.0,55,0.00,CLR,,0.00,WeatherDisplay:10.37,2013-09-14 18:40:00,
2013-09-14 14:50:00,77.1,59.2,30.00,WSW,243,0.0,5.0,54,0.00,CLR,,0.00,WeatherDisplay:10.37,2013-09-14 18:50:00,
2013-09-14 15:00:00,77.5,58.5,30.00,South,186,1.0,6.0,52,0.00,CLR,,0.00,WeatherDisplay:10.37,2013-09-14 19:00:00,
2013-09-14 15:10:00,77.0,59.6,30.00,ESE,107,1.0,6.0,55,0.00,CLR,,0.00,WeatherDisplay:10.37,2013-09-14 19:10:00,
2013-09-14 15:20:00,77.0,59.1,30.00,East,90,0.0,3.0,54,0.00,CLR,,0.00,WeatherDisplay:10.37,2013-09-14 19:20:00,
2013-09-14 15:30:00,77.9,57.8,30.00,South,178,2.0,5.0,50,0.00,CLR,,0.00,WeatherDisplay:10.37,2013-09-14 19:30:00,
2013-09-14 15:40:00,78.3,60.8,30.00,SSE,151,2.0,5.0,55,0.00,CLR,,0.00,WeatherDisplay:10.37,2013-09-14 19:40:00,
2013-09-14 15:50:00,78.6,60.6,30.00,West,269,0.0,4.0,54,0.00,SCT,,0.00,WeatherDisplay:10.37,2013-09-14 19:50:00,
2013-09-14 16:00:00,78.7,59.6,29.99,East,101,0.0,5.0,52,0.00,SCT,,0.00,WeatherDisplay:10.37,2013-09-14 20:00:00,
2013-09-14 16:10:00,78.8,58.0,30.00,ESE,122,1.0,4.0,49,0.00,BKN,,0.00,WeatherDisplay:10.37,2013-09-14 20:10:00,
2013-09-14 16:20:00,77.8,57.7,29.99,East,99,0.0,6.0,50,0.00,BKN,,0.00,WeatherDisplay:10.37,2013-09-14 20:20:00,
2013-09-14 16:30:00,77.0,60.1,29.99,East,98,0.0,0.0,56,0.00,BKN,,0.00,WeatherDisplay:10.37,2013-09-14 20:30:00,
2013-09-14 16:40:00,77.1,61.7,29.99,SW,230,0.0,4.0,59,0.00,SCT,,0.00,WeatherDisplay:10.37,2013-09-14 20:40:00,
2013-09-14 16:50:00,77.6,60.7,29.99,SE,146,0.0,5.0,56,0.00,SCT,,0.00,WeatherDisplay:10.37,2013-09-14 20:50:00,
2013-09-14 17:00:00,77.9,59.4,29.99,ESE,119,0.0,3.0,53,0.00,SCT,,0.00,WeatherDisplay:10.37,2013-09-14 21:00:00,
2013-09-14 17:10:00,78.4,59.3,29.99,ESE,119,0.0,1.0,52,0.00,SCT,,0.00,WeatherDisplay:10.37,2013-09-14 21:10:00,
2013-09-14 17:20:00,78.4,60.4,29.99,ESE,119,0.0,2.0,54,0.00,SCT,,0.00,WeatherDisplay:10.37,2013-09-14 21:20:00,
2013-09-14 17:30:00,77.3,61.3,30.00,NE,52,0.0,5.0,58,0.00,SCT,,0.00,WeatherDisplay:10.37,2013-09-14 21:30:00,
2013-09-14 17:40:00,75.9,61.0,30.00,NE,43,0.0,0.0,60,0.00,CLR,,0.00,WeatherDisplay:10.37,2013-09-14 21:40:00,
2013-09-14 17:50:00,75.5,61.1,30.00,NE,43,0.0,1.0,61,0.00,CLR,,0.00,WeatherDisplay:10.37,2013-09-14 21:50:00,
2013-09-14 18:00:00,75.1,61.2,30.00,NE,43,0.0,1.0,62,0.00,CLR,,0.00,WeatherDisplay:10.37,2013-09-14 22:00:00,
2013-09-14 18:10:00,74.4,61.0,30.00,NE,43,0.0,1.0,63,0.00,CLR,,0.00,WeatherDisplay:10.37,2013-09-14 22:10:00,
2013-09-14 18:20:00,73.7,60.8,30.00,NE,43,0.0,1.0,64,0.00,CLR,,0.00,WeatherDisplay:10.37,2013-09-14 22:20:00,
2013-09-14 18:30:00,73.1,61.5,30.00,NE,43,0.0,1.0,67,0.00,CLR,,0.00,WeatherDisplay:10.37,2013-09-14 22:30:00,
2013-09-14 18:40:00,72.5,61.8,30.00,NE,43,0.0,1.0,69,0.00,CLR,,0.00,WeatherDisplay:10.37,2013-09-14 22:40:00,
2013-09-14 18:50:00,71.9,61.6,30.00,NE,43,0.0,1.0,70,0.00,CLR,,0.00,WeatherDisplay:10.37,2013-09-14 22:50:00,
2013-09-14 19:00:00,71.0,61.2,30.00,NE,43,0.0,0.0,71,0.00,CLR,,0.00,WeatherDisplay:10.37,2013-09-14 23:00:00,
2013-09-14 19:10:00,70.3,60.8,30.00,NE,43,0.0,0.0,72,0.00,CLR,,0.00,WeatherDisplay:10.37,2013-09-14 23:10:00,
2013-09-14 19:20:00,69.7,61.0,30.00,NE,43,0.0,0.0,74,0.00,CLR,,0.00,WeatherDisplay:10.37,2013-09-14 23:20:00,
2013-09-14 19:30:00,68.9,61.1,30.01,NE,43,0.0,0.0,76,0.00,CLR,,0.00,WeatherDisplay:10.37,2013-09-14 23:30:00,
2013-09-14 19:40:00,68.3,60.8,30.01,NE,43,0.0,0.0,77,0.00,CLR,,0.00,WeatherDisplay:10.37,2013-09-14 23:40:00,
2013-09-14 19:50:00,67.6,60.8,30.01,NE,43,0.0,0.0,79,0.00,CLR,,0.00,WeatherDisplay:10.37,2013-09-14 23:50:00,
2013-09-14 20:00:00,66.8,60.4,30.02,NE,43,0.0,0.0,80,0.00,CLR,,0.00,WeatherDisplay:10.37,2013-09-15 00:00:00,
2013-09-14 20:10:00,66.2,60.5,30.01,NE,43,0.0,0.0,82,0.00,CLR,,0.00,WeatherDisplay:10.37,2013-09-15 00:10:00,
2013-09-14 20:20:00,65.5,60.2,30.01,NE,43,0.0,0.0,83,0.00,CLR,,0.00,WeatherDisplay:10.37,2013-09-15 00:20:00,
2013-09-14 20:30:00,64.9,60.0,30.01,NE,43,0.0,0.0,84,0.00,CLR,,0.00,WeatherDisplay:10.37,2013-09-15 00:30:00,
2013-09-14 20:40:00,64.4,59.8,30.02,NE,43,0.0,0.0,85,0.00,CLR,,0.00,WeatherDisplay:10.37,2013-09-15 00:40:00,
2013-09-14 20:50:00,63.9,60.0,30.02,NE,43,0.0,0.0,87,0.00,CLR,,0.00,WeatherDisplay:10.37,2013-09-15 00:50:00,
2013-09-14 21:00:00,63.5,59.9,30.03,NE,43,0.0,0.0,88,0.00,CLR,,0.00,WeatherDisplay:10.37,2013-09-15 01:00:00,
2013-09-14 21:10:00,63.1,59.5,30.04,NE,43,0.0,0.0,88,0.00,CLR,,0.00,WeatherDisplay:10.37,2013-09-15 01:10:00,
2013-09-14 21:20:00,62.8,59.5,30.04,NE,43,0.0,0.0,89,0.00,CLR,,0.00,WeatherDisplay:10.37,2013-09-15 01:20:00,
2013-09-14 21:30:00,62.5,59.5,30.05,NE,43,0.0,0.0,90,0.00,CLR,,0.00,WeatherDisplay:10.37,2013-09-15 01:30:00,
2013-09-14 21:40:00,62.2,59.2,30.05,NE,43,0.0,0.0,90,0.00,CLR,,0.00,WeatherDisplay:10.37,2013-09-15 01:40:00,
2013-09-14 21:50:00,61.9,59.2,30.04,NE,43,0.0,0.0,91,0.00,CLR,,0.00,WeatherDisplay:10.37,2013-09-15 01:50:00,
2013-09-14 22:00:00,61.7,59.0,30.04,NE,43,0.0,0.0,91,0.00,CLR,,0.00,WeatherDisplay:10.37,2013-09-15 02:00:00,
2013-09-14 22:10:00,61.5,59.2,30.05,NE,43,0.0,0.0,92,0.00,CLR,,0.00,WeatherDisplay:10.37,2013-09-15 02:10:00,
2013-09-14 22:20:00,61.3,59.0,30.05,NE,43,0.0,0.0,92,0.00,CLR,,0.00,WeatherDisplay:10.37,2013-09-15 02:20:00,
2013-09-14 22:30:00,61.0,58.7,30.05,NE,43,0.0,0.0,92,0.00,CLR,,0.00,WeatherDisplay:10.37,2013-09-15 02:30:00,
2013-09-14 22:40:00,60.8,58.5,30.05,NE,43,0.0,0.0,92,0.00,CLR,,0.00,WeatherDisplay:10.37,2013-09-15 02:40:00,
2013-09-14 22:50:00,60.6,58.6,30.06,NE,43,0.0,1.0,93,0.00,CLR,,0.00,WeatherDisplay:10.37,2013-09-15 02:50:00,
2013-09-14 23:00:00,60.5,58.4,30.06,NE,43,0.0,0.0,93,0.00,CLR,,0.00,WeatherDisplay:10.37,2013-09-15 03:00:00,
2013-09-14 23:10:00,60.3,58.3,30.06,NE,43,0.0,0.0,93,0.00,CLR,,0.00,WeatherDisplay:10.37,2013-09-15 03:10:00,
2013-09-14 23:20:00,60.2,58.2,30.06,NE,43,0.0,1.0,93,0.00,CLR,,0.00,WeatherDisplay:10.37,2013-09-15 03:20:00,
2013-09-14 23:30:00,60.0,58.3,30.07,NE,43,0.0,0.0,94,0.00,CLR,,0.00,WeatherDisplay:10.37,2013-09-15 03:30:00,
2013-09-14 23:40:00,59.8,58.1,30.06,NE,43,0.0,0.0,94,0.00,CLR,,0.00,WeatherDisplay:10.37,2013-09-15 03:40:00,
2013-09-14 23:50:00,59.7,57.9,30.07,NE,43,0.0,0.0,94,0.00,CLR,,0.00,WeatherDisplay:10.37,2013-09-15 03:50:00,